Time;durP1;ratioP1;P1;durP2;ratioP2;P2;SDS_P1;SDS_P2;PMS_P1;PMS_P2;Temp;Humidity;BMP_temperature;BMP_pressure;BME280_temperature;BME280_humidity;BME280_pressure;Samples;Min_cycle;Max_cycle;Signal;HPM_P1;HPM_P2
2022/06/13 00:00:47;;;;;;;3.53;2.03;;;16.50;81.10;;;;;;2096843;28;20016;-70
2022/06/13 00:01:48;;;;;;;4.63;2.30;;;16.50;81.00;;;;;;2095203;28;20480;-70
2022/06/13 00:02:49;;;;;;;4.47;2.17;;;16.40;81.60;;;;;;2095535;28;20020;-70
2022/06/13 00:03:50;;;;;;;5.57;2.42;;;16.40;82.40;;;;;;2091846;28;20036;-70
2022/06/13 00:04:51;;;;;;;5.15;2.53;;;16.40;83.20;;;;;;2093440;28;20043;-70
2022/06/13 00:05:52;;;;;;;4.80;2.70;;;16.40;83.60;;;;;;2096616;28;20515;-70
2022/06/13 00:06:52;;;;;;;5.18;2.38;;;16.40;83.40;;;;;;2094338;28;20058;-70
2022/06/13 00:07:53;;;;;;;3.05;2.33;;;16.40;84.60;;;;;;2097801;28;20465;-70
2022/06/13 00:08:53;;;;;;;4.30;2.40;;;16.30;84.30;;;;;;2094709;28;20106;-70
2022/06/13 00:09:54;;;;;;;4.75;2.35;;;16.30;84.80;;;;;;2090824;28;20020;-70
2022/06/13 00:10:54;;;;;;;4.53;2.25;;;16.30;84.80;;;;;;2095320;28;20032;-70
2022/06/13 00:11:55;;;;;;;5.43;2.70;;;16.30;85.90;;;;;;2092867;28;20120;-70
2022/06/13 00:12:56;;;;;;;4.10;2.25;;;16.20;86.40;;;;;;2095563;28;20052;-70
2022/06/13 00:13:57;;;;;;;6.47;2.75;;;16.20;86.90;;;;;;2093485;28;20025;-70
2022/06/13 00:14:58;;;;;;;4.78;2.38;;;16.20;87.70;;;;;;2089678;28;20131;-70
2022/06/13 00:15:58;;;;;;;5.22;2.15;;;16.20;88.40;;;;;;2093540;28;20106;-70
2022/06/13 00:17:00;;;;;;;3.53;2.22;;;16.10;88.90;;;;;;2095560;28;20044;-70
2022/06/13 00:18:01;;;;;;;3.92;2.65;;;16.10;88.30;;;;;;2092883;28;20008;-70
2022/06/13 00:19:02;;;;;;;2.80;2.10;;;16.10;89.50;;;;;;2092703;28;20104;-70
2022/06/13 00:20:05;;;;;;;5.22;2.10;;;16.10;89.10;;;;;;2094264;28;20032;-70
2022/06/13 00:21:05;;;;;;;5.68;2.60;;;16.10;89.60;;;;;;2092280;28;20033;-70
2022/06/13 00:22:06;;;;;;;7.45;2.35;;;16.10;89.40;;;;;;2095787;28;20016;-70
2022/06/13 00:23:07;;;;;;;5.30;2.72;;;16.00;90.20;;;;;;2091640;28;20017;-70
2022/06/13 00:24:09;;;;;;;4.70;2.28;;;16.00;90.60;;;;;;2097944;28;20028;-70
2022/06/13 00:25:10;;;;;;;4.90;3.03;;;16.00;90.90;;;;;;2096871;28;20106;-70
2022/06/13 00:26:10;;;;;;;4.53;2.50;;;16.00;91.00;;;;;;2092982;28;20048;-70
2022/06/13 00:27:12;;;;;;;3.88;2.25;;;16.00;90.40;;;;;;2095212;28;20107;-70
2022/06/13 00:28:12;;;;;;;4.88;2.53;;;15.90;90.20;;;;;;2092803;28;20645;-70
2022/06/13 00:29:13;;;;;;;4.55;2.80;;;15.90;90.70;;;;;;2094300;28;20029;-70
2022/06/13 00:30:13;;;;;;;5.75;2.40;;;15.90;91.40;;;;;;2094208;28;20036;-70
2022/06/13 00:31:15;;;;;;;6.35;2.70;;;15.90;91.60;;;;;;2092584;28;20036;-70
2022/06/13 00:32:16;;;;;;;5.32;2.83;;;15.80;92.30;;;;;;2093697;28;20121;-70
2022/06/13 00:33:16;;;;;;;4.72;2.50;;;15.80;92.80;;;;;;2094384;28;20075;-70
2022/06/13 00:34:17;;;;;;;8.00;2.40;;;15.80;92.70;;;;;;2094266;28;20032;-70
2022/06/13 00:35:18;;;;;;;5.55;2.58;;;15.80;92.60;;;;;;2093852;28;20097;-70
2022/06/13 00:36:23;;;;;;;7.70;3.00;;;15.80;93.30;;;;;;2093053;28;20065;-70
2022/06/13 00:37:23;;;;;;;5.88;2.90;;;15.80;93.60;;;;;;2092518;28;20089;-70
2022/06/13 00:38:24;;;;;;;6.53;3.10;;;15.80;93.40;;;;;;2092579;28;20021;-70
2022/06/13 00:39:25;;;;;;;7.80;3.10;;;15.70;93.40;;;;;;2097754;28;20025;-70
2022/06/13 00:40:25;;;;;;;7.03;2.78;;;15.80;94.20;;;;;;2100489;28;20020;-70
2022/06/13 00:41:36;;;;;;;7.45;3.22;;;15.70;94.30;;;;;;2093634;28;20036;-70
2022/06/13 00:42:38;;;;;;;5.20;2.65;;;15.70;95.00;;;;;;2092387;28;20012;-70
2022/06/13 00:43:41;;;;;;;5.93;2.88;;;15.70;95.00;;;;;;2090518;28;20231;-70
2022/06/13 00:44:42;;;;;;;5.38;2.83;;;15.60;95.30;;;;;;2091078;28;20477;-70
2022/06/13 00:45:43;;;;;;;6.55;2.40;;;15.60;95.40;;;;;;2091888;28;20592;-70
2022/06/13 00:46:44;;;;;;;5.10;2.50;;;15.60;94.90;;;;;;2092879;28;20052;-70
2022/06/13 00:47:48;;;;;;;7.80;2.97;;;15.60;94.60;;;;;;2095049;28;20081;-70
2022/06/13 00:49:11;;;;;;;4.45;2.83;;;15.60;95.20;;;;;;2093224;28;20380;-70
2022/06/13 00:50:18;;;;;;;3.47;2.35;;;15.60;97.00;;;;;;2092471;28;20114;-70
2022/06/13 00:51:19;;;;;;;6.50;2.80;;;15.50;96.80;;;;;;2092226;28;20032;-70
2022/06/13 00:52:30;;;;;;;6.10;2.83;;;15.50;96.90;;;;;;2095098;28;20488;-70
2022/06/13 00:53:35;;;;;;;4.95;2.67;;;15.50;97.40;;;;;;2094762;28;20465;-70
2022/06/13 00:54:38;;;;;;;3.80;2.40;;;15.40;96.70;;;;;;2091281;28;20103;-70
2022/06/13 00:55:43;;;;;;;3.90;2.53;;;15.40;96.40;;;;;;2090028;28;20376;-70
2022/06/13 00:56:44;;;;;;;6.03;2.90;;;15.40;97.20;;;;;;2093447;28;20028;-70
2022/06/13 00:57:45;;;;;;;6.03;2.97;;;15.40;97.70;;;;;;2092503;28;20021;-70
2022/06/13 00:58:55;;;;;;;5.20;2.53;;;15.40;97.60;;;;;;2095566;28;20031;-70
2022/06/13 01:00:03;;;;;;;6.55;2.53;;;15.40;98.10;;;;;;2090251;28;20017;-70
2022/06/13 01:01:04;;;;;;;6.75;2.50;;;15.40;97.60;;;;;;2097930;28;20104;-70
2022/06/13 01:02:07;;;;;;;6.57;2.97;;;15.30;97.80;;;;;;2093074;28;20033;-70
2022/06/13 01:03:08;;;;;;;4.85;2.30;;;15.30;98.50;;;;;;2091475;28;20031;-70
2022/06/13 01:04:09;;;;;;;4.13;2.72;;;15.30;98.10;;;;;;2090236;28;20028;-70
2022/06/13 01:05:12;;;;;;;5.40;2.28;;;15.30;97.40;;;;;;2093808;28;20031;-70
2022/06/13 01:06:13;;;;;;;5.45;2.38;;;15.30;97.50;;;;;;2093827;28;20049;-70
2022/06/13 01:07:14;;;;;;;5.40;2.42;;;15.30;97.90;;;;;;2093333;28;20689;-70
2022/06/13 01:08:17;;;;;;;4.20;2.58;;;15.30;98.00;;;;;;2092910;28;20056;-70
2022/06/13 01:11:16;;;;;;;4.88;3.10;;;15.20;99.10;;;;;;2091050;28;20039;-70
2022/06/13 01:12:06;;;;;;;4.63;2.30;;;15.10;99.80;;;;;;2094516;28;20033;-70
2022/06/13 01:13:10;;;;;;;4.18;2.63;;;15.10;98.80;;;;;;2092863;28;20021;-70
2022/06/13 01:14:23;;;;;;;7.85;3.00;;;15.10;99.50;;;;;;2095127;28;20029;-70
2022/06/13 01:15:38;;;;;;;7.00;2.67;;;15.10;99.90;;;;;;2091272;28;20039;-70
2022/06/13 01:17:08;;;;;;;6.82;2.88;;;15.00;99.90;;;;;;2095352;28;20031;-70
2022/06/13 01:18:24;;;;;;;7.50;2.80;;;15.00;99.90;;;;;;2075324;28;20486;-70
2022/06/13 01:19:46;;;;;;;3.15;2.15;;;15.00;99.90;;;;;;2092727;28;20028;-70
2022/06/13 01:20:58;;;;;;;4.53;2.88;;;15.00;99.90;;;;;;2090687;28;20482;-70
2022/06/13 01:22:13;;;;;;;6.13;2.85;;;15.00;99.90;;;;;;2091632;28;20021;-70
2022/06/13 01:23:55;;;;;;;10.32;3.25;;;14.90;99.90;;;;;;2092667;28;20028;-70
2022/06/13 01:25:15;;;;;;;5.32;2.78;;;14.90;99.90;;;;;;2091746;28;20412;-70
2022/06/13 01:26:31;;;;;;;5.28;2.70;;;14.90;99.90;;;;;;2095663;28;20030;-70
2022/06/13 01:27:57;;;;;;;5.75;2.85;;;14.80;99.90;;;;;;2094272;28;20020;-70
2022/06/13 01:29:18;;;;;;;6.88;3.03;;;14.80;99.90;;;;;;2095248;28;20762;-70
2022/06/13 01:30:45;;;;;;;9.55;3.47;;;14.80;99.90;;;;;;2090913;28;20068;-70
2022/06/13 01:32:05;;;;;;;7.45;2.78;;;14.70;99.90;;;;;;2096353;28;20024;-70
2022/06/13 01:33:39;;;;;;;7.05;2.90;;;14.70;99.90;;;;;;2092748;28;20021;-70
2022/06/13 01:35:01;;;;;;;4.28;2.83;;;14.70;99.90;;;;;;2092457;28;20514;-70
2022/06/13 01:36:22;;;;;;;5.80;2.60;;;14.70;99.90;;;;;;2096762;28;20025;-70
2022/06/13 01:37:47;;;;;;;6.13;2.92;;;14.60;99.90;;;;;;2096841;28;20104;-70
2022/06/13 01:39:20;;;;;;;7.15;2.90;;;14.60;99.90;;;;;;2094540;28;20016;-70
2022/06/13 01:40:32;;;;;;;5.57;3.15;;;14.60;99.90;;;;;;2078339;28;20505;-70
2022/06/13 01:42:20;;;;;;;4.93;2.80;;;14.60;99.90;;;;;;2091705;28;20147;-70
2022/06/13 01:43:23;;;;;;;7.60;2.78;;;14.50;99.90;;;;;;2072718;28;20048;-70
2022/06/13 01:44:43;;;;;;;5.47;2.80;;;14.50;99.90;;;;;;2094239;28;20039;-70
2022/06/13 01:45:49;;;;;;;5.70;3.22;;;14.50;99.90;;;;;;2090387;28;20077;-70
2022/06/13 01:47:09;;;;;;;4.63;3.03;;;14.50;99.90;;;;;;2096944;28;20017;-70
2022/06/13 01:48:38;;;;;;;7.75;3.05;;;14.50;99.90;;;;;;2092279;28;20032;-70
2022/06/13 01:49:51;;;;;;;3.00;2.22;;;14.50;99.90;;;;;;2094965;28;20029;-70
2022/06/13 01:51:10;;;;;;;6.57;2.92;;;14.50;99.90;;;;;;2090961;28;20103;-70
2022/06/13 01:52:27;;;;;;;5.63;2.92;;;14.50;99.90;;;;;;2091895;28;20033;-70
2022/06/13 01:53:47;;;;;;;7.00;3.35;;;14.40;99.90;;;;;;2091363;28;20107;-70
2022/06/13 01:55:13;;;;;;;5.30;3.10;;;14.50;99.90;;;;;;2092912;28;20012;-70
2022/06/13 01:56:17;;;;;;;5.10;3.22;;;14.40;99.90;;;;;;2076922;28;20784;-70
2022/06/13 01:57:30;;;;;;;4.78;3.17;;;14.40;99.90;;;;;;2093278;28;20055;-70
2022/06/13 01:58:36;;;;;;;4.75;3.17;;;14.40;99.90;;;;;;2090181;28;20498;-70
2022/06/13 02:00:18;;;;;;;5.32;3.08;;;14.50;99.90;;;;;;2095632;28;20036;-70
2022/06/13 02:01:34;;;;;;;4.60;2.78;;;14.40;99.90;;;;;;2068627;28;20105;-70
2022/06/13 02:02:46;;;;;;;5.38;2.90;;;14.50;99.90;;;;;;2071605;28;20030;-70
2022/06/13 02:04:00;;;;;;;8.38;3.80;;;14.50;99.90;;;;;;2087871;28;20447;-70
2022/06/13 02:05:27;;;;;;;4.50;3.05;;;14.50;99.90;;;;;;2097715;28;20012;-70
2022/06/13 02:06:37;;;;;;;6.25;3.00;;;14.50;99.90;;;;;;2092887;28;20817;-70
2022/06/13 02:07:43;;;;;;;5.85;3.17;;;14.50;99.90;;;;;;2093686;28;20029;-70
2022/06/13 02:08:57;;;;;;;5.63;2.70;;;14.50;99.90;;;;;;2094212;28;20747;-70
2022/06/13 02:10:06;;;;;;;6.10;3.17;;;14.50;99.90;;;;;;2095304;28;20021;-70
2022/06/13 02:11:12;;;;;;;4.80;2.70;;;14.50;99.90;;;;;;2097921;28;20025;-70
2022/06/13 02:12:14;;;;;;;6.68;3.17;;;14.50;99.90;;;;;;2095577;28;20016;-70
2022/06/13 02:13:37;;;;;;;7.07;3.55;;;14.60;99.90;;;;;;2093416;28;20039;-70
2022/06/13 02:14:43;;;;;;;3.83;2.80;;;14.60;99.90;;;;;;2095339;28;20028;-70
2022/06/13 02:15:53;;;;;;;5.78;3.75;;;14.50;99.90;;;;;;2090850;28;20020;-70
2022/06/13 02:17:01;;;;;;;6.53;3.05;;;14.60;99.90;;;;;;2092075;28;20035;-70
2022/06/13 02:18:14;;;;;;;5.00;3.25;;;14.60;99.90;;;;;;2094669;28;20081;-70
2022/06/13 02:19:18;;;;;;;5.40;3.38;;;14.60;99.90;;;;;;2096429;28;20067;-70
2022/06/13 02:20:24;;;;;;;6.45;3.40;;;14.60;99.90;;;;;;2094424;28;20028;-70
2022/06/13 02:21:33;;;;;;;9.15;3.60;;;14.60;99.90;;;;;;2092675;28;20033;-70
2022/06/13 02:22:52;;;;;;;7.75;3.70;;;14.60;99.90;;;;;;2094095;28;20366;-70
2022/06/13 02:23:57;;;;;;;5.72;3.20;;;14.60;99.90;;;;;;2092624;28;20285;-70
2022/06/13 02:25:04;;;;;;;5.50;3.00;;;14.60;99.90;;;;;;2095880;28;20016;-70
2022/06/13 02:26:13;;;;;;;6.15;2.80;;;14.60;99.90;;;;;;2097237;28;20025;-70
2022/06/13 02:27:15;;;;;;;5.55;2.65;;;14.60;99.90;;;;;;2093599;28;20063;-70
2022/06/13 02:28:23;;;;;;;4.65;2.92;;;14.60;99.90;;;;;;2096189;28;20028;-70
2022/06/13 02:29:41;;;;;;;3.90;3.03;;;14.60;99.90;;;;;;2093124;28;20039;-70
2022/06/13 02:30:53;;;;;;;5.50;3.00;;;14.60;99.90;;;;;;2099172;28;20672;-70
2022/06/13 02:32:15;;;;;;;5.93;3.28;;;14.60;99.90;;;;;;2094261;28;20479;-70
2022/06/13 02:33:29;;;;;;;6.45;3.55;;;14.60;99.90;;;;;;2094711;28;20039;-70
2022/06/13 02:34:42;;;;;;;6.93;3.33;;;14.60;99.90;;;;;;2095821;28;20059;-70
2022/06/13 02:35:51;;;;;;;6.10;3.22;;;14.60;99.90;;;;;;2096436;28;20035;-70
2022/06/13 02:37:39;;;;;;;6.47;3.38;;;14.60;99.90;;;;;;2094184;28;20379;-70
2022/06/13 02:38:57;;;;;;;9.32;3.53;;;14.60;99.90;;;;;;2094587;28;20553;-70
2022/06/13 02:40:09;;;;;;;6.40;3.75;;;14.60;99.90;;;;;;2093644;28;20029;-70
2022/06/13 02:41:15;;;;;;;7.80;3.28;;;14.50;99.90;;;;;;2092361;28;20025;-70
2022/06/13 02:42:39;;;;;;;7.30;3.25;;;14.50;99.90;;;;;;2096476;28;20032;-70
2022/06/13 02:43:54;;;;;;;8.65;3.40;;;14.50;99.90;;;;;;2094097;28;20024;-70
2022/06/13 02:45:10;;;;;;;6.07;3.00;;;14.50;99.90;;;;;;2092762;28;20554;-70
2022/06/13 02:46:19;;;;;;;6.22;3.33;;;14.50;99.90;;;;;;2094883;28;20035;-70
2022/06/13 02:47:42;;;;;;;8.02;3.80;;;14.50;99.90;;;;;;2093883;28;20024;-70
2022/06/13 02:48:52;;;;;;;8.50;3.78;;;14.50;99.90;;;;;;2095236;28;20143;-70
2022/06/13 02:50:02;;;;;;;5.40;3.78;;;14.50;99.90;;;;;;2098529;28;20020;-70
2022/06/13 02:51:03;;;;;;;;;;;14.50;99.90;;;;;;2095570;28;20033;-70
2022/06/13 02:52:15;;;;;;;7.63;4.28;;;14.40;99.90;;;;;;2092227;28;19912;-70
2022/06/13 02:53:25;;;;;;;6.55;3.08;;;14.40;99.90;;;;;;2092897;28;20384;-70
2022/06/13 02:54:42;;;;;;;7.10;3.33;;;14.40;99.90;;;;;;2096565;28;20115;-70
2022/06/13 02:55:51;;;;;;;7.60;3.63;;;14.40;99.90;;;;;;2091339;28;20476;-70
2022/06/13 02:57:25;;;;;;;6.43;3.45;;;14.40;99.90;;;;;;2092144;28;20070;-70
2022/06/13 02:58:37;;;;;;;6.38;3.60;;;14.40;99.90;;;;;;2087858;28;20074;-70
2022/06/13 02:59:51;;;;;;;7.53;3.53;;;14.40;99.90;;;;;;2097060;28;20009;-70
2022/06/13 03:00:52;;;;;;;8.30;4.05;;;14.40;99.90;;;;;;2093980;28;20024;-70
2022/06/13 03:01:56;;;;;;;11.45;4.72;;;14.40;99.90;;;;;;2096143;28;20021;-70
2022/06/13 03:03:00;;;;;;;7.32;3.88;;;14.40;99.90;;;;;;2096459;28;20027;-70
2022/06/13 03:04:06;;;;;;;6.63;3.80;;;14.50;99.90;;;;;;2098783;28;20028;-70
2022/06/13 03:05:34;;;;;;;8.02;4.22;;;14.50;99.90;;;;;;2096806;28;20198;-70
2022/06/13 03:07:02;;;;;;;6.10;3.58;;;14.50;99.90;;;;;;2092784;28;20137;-70
2022/06/13 03:08:12;;;;;;;6.88;3.90;;;14.50;99.90;;;;;;2094860;28;20020;-70
2022/06/13 03:09:20;;;;;;;11.32;4.40;;;14.40;99.90;;;;;;2094582;28;20028;-70
2022/06/13 03:10:25;;;;;;;5.30;3.85;;;14.40;99.90;;;;;;2094771;28;20122;-70
2022/06/13 03:11:39;;;;;;;9.15;4.18;;;14.40;99.90;;;;;;2093674;28;20032;-70
2022/06/13 03:13:01;;;;;;;4.20;3.17;;;14.50;99.90;;;;;;2093591;28;20091;-70
2022/06/13 03:14:20;;;;;;;7.03;3.97;;;14.50;99.90;;;;;;2092206;28;20120;-70
2022/06/13 03:15:38;;;;;;;8.77;3.90;;;14.50;99.90;;;;;;2090490;28;20484;-70
2022/06/13 03:16:46;;;;;;;7.88;3.97;;;14.50;99.90;;;;;;2095272;28;20028;-70
2022/06/13 03:18:30;;;;;;;6.03;3.80;;;14.50;99.90;;;;;;2096963;28;20024;-70
2022/06/13 03:19:49;;;;;;;6.25;3.83;;;14.50;99.90;;;;;;2089562;28;20438;-70
2022/06/13 03:21:01;;;;;;;7.53;4.10;;;14.50;99.90;;;;;;2094003;28;20029;-70
2022/06/13 03:22:15;;;;;;;7.50;4.32;;;14.50;99.90;;;;;;2095001;28;20039;-70
2022/06/13 03:23:29;;;;;;;5.15;3.67;;;14.50;99.90;;;;;;2094862;28;20703;-70
2022/06/13 03:24:36;;;;;;;7.25;4.28;;;14.50;99.90;;;;;;2094799;28;20118;-70
2022/06/13 03:25:57;;;;;;;8.45;4.55;;;14.50;99.90;;;;;;2089937;28;20040;-70
2022/06/13 03:27:26;;;;;;;9.50;4.32;;;14.60;99.90;;;;;;2092479;28;20048;-70
2022/06/13 03:28:29;;;;;;;7.63;3.70;;;14.60;99.90;;;;;;2088309;28;20400;-70
2022/06/13 03:29:46;;;;;;;7.63;4.15;;;14.60;99.90;;;;;;2093394;28;20411;-70
2022/06/13 03:30:51;;;;;;;5.07;3.15;;;14.60;99.90;;;;;;2095172;28;20024;-70
2022/06/13 03:31:56;;;;;;;7.55;4.43;;;14.60;99.90;;;;;;2093561;28;20025;-70
2022/06/13 03:34:31;;;;;;;8.95;4.07;;;14.70;99.90;;;;;;2088946;28;20123;-70
2022/06/13 03:35:34;;;;;;;6.90;4.10;;;14.70;99.90;;;;;;2095740;28;20020;-70
2022/06/13 03:36:45;;;;;;;11.65;4.40;;;14.70;99.90;;;;;;2091644;28;20025;-70
2022/06/13 03:37:49;;;;;;;9.50;4.13;;;14.70;99.90;;;;;;2099992;28;20103;-70
2022/06/13 03:38:53;;;;;;;8.48;4.07;;;14.70;99.90;;;;;;2093591;28;20131;-70
2022/06/13 03:40:01;;;;;;;10.65;4.93;;;14.70;99.90;;;;;;2093628;28;20024;-70
2022/06/13 03:41:04;;;;;;;6.90;4.13;;;14.80;99.90;;;;;;2094377;28;20021;-70
2022/06/13 03:42:12;;;;;;;6.07;4.05;;;14.80;99.90;;;;;;2094632;28;20020;-70
2022/06/13 03:43:32;;;;;;;6.13;3.90;;;14.80;99.90;;;;;;2091712;28;20051;-70
2022/06/13 03:44:42;;;;;;;8.82;4.32;;;14.80;99.90;;;;;;2094772;28;20549;-70
2022/06/13 03:45:56;;;;;;;10.50;4.63;;;14.80;99.90;;;;;;2097068;28;20108;-70
2022/06/13 03:47:09;;;;;;;8.07;4.10;;;14.80;99.90;;;;;;2093778;28;20024;-70
2022/06/13 03:48:17;;;;;;;7.05;4.07;;;14.90;99.90;;;;;;2092228;28;20143;-70
2022/06/13 03:49:33;;;;;;;8.05;4.45;;;14.90;99.90;;;;;;2092905;28;20396;-70
2022/06/13 03:51:00;;;;;;;8.10;4.65;;;14.90;99.90;;;;;;2090287;28;20032;-70
2022/06/13 03:52:03;;;;;;;8.95;4.03;;;14.90;99.90;;;;;;2109300;28;20020;-70
2022/06/13 03:53:29;;;;;;;7.57;3.65;;;14.90;99.90;;;;;;2106101;28;20032;-70
2022/06/13 03:54:37;;;;;;;8.57;4.47;;;14.90;99.90;;;;;;2091955;28;20492;-70
2022/06/13 03:55:49;;;;;;;9.27;4.25;;;14.90;99.90;;;;;;2091922;28;20052;-70
2022/06/13 03:57:00;;;;;;;8.75;3.97;;;15.00;99.90;;;;;;2094691;28;20073;-70
2022/06/13 03:58:08;;;;;;;10.05;4.55;;;15.00;99.90;;;;;;2095816;28;20024;-70
2022/06/13 03:59:58;;;;;;;8.52;4.72;;;15.00;99.90;;;;;;2091646;28;20481;-70
2022/06/13 04:01:11;;;;;;;11.98;4.03;;;15.10;99.90;;;;;;2092140;28;20150;-70
2022/06/13 04:02:15;;;;;;;10.80;4.80;;;15.10;99.90;;;;;;2090523;28;20029;-70
2022/06/13 04:03:16;;;;;;;10.30;4.93;;;15.10;99.90;;;;;;2092098;28;20023;-70
2022/06/13 04:04:20;;;;;;;10.70;5.20;;;15.20;99.90;;;;;;2092399;28;20017;-70
2022/06/13 04:05:31;;;;;;;8.00;4.55;;;15.20;99.90;;;;;;2089528;28;20052;-70
2022/06/13 04:06:44;;;;;;;7.72;4.63;;;15.20;99.90;;;;;;2091379;28;20032;-70
2022/06/13 04:07:45;;;;;;;9.63;4.45;;;15.20;99.90;;;;;;2092764;28;20020;-70
2022/06/13 04:08:45;;;;;;;8.77;4.30;;;15.20;99.90;;;;;;2093621;28;20029;-70
2022/06/13 04:09:50;;;;;;;6.57;4.07;;;15.20;99.90;;;;;;2094244;28;20083;-70
2022/06/13 04:11:31;;;;;;;8.35;3.95;;;15.30;99.90;;;;;;2094713;28;20028;-70
2022/06/13 04:12:59;;;;;;;10.40;4.40;;;15.30;99.90;;;;;;2090471;28;20523;-70
2022/06/13 04:14:28;;;;;;;8.63;4.70;;;15.30;99.90;;;;;;2090967;28;20755;-70
2022/06/13 04:15:52;;;;;;;8.73;4.78;;;15.30;99.90;;;;;;2091443;28;20025;-70
2022/06/13 04:17:04;;;;;;;10.15;4.78;;;15.30;99.90;;;;;;2107229;28;20039;-70
2022/06/13 04:18:36;;;;;;;8.73;4.78;;;15.30;99.90;;;;;;2106120;28;20392;-70
2022/06/13 04:19:48;;;;;;;8.75;4.22;;;15.30;99.90;;;;;;2096119;28;20107;-70
2022/06/13 04:21:00;;;;;;;10.23;4.57;;;15.30;99.90;;;;;;2089994;28;20472;-70
2022/06/13 04:22:22;;;;;;;7.75;4.47;;;15.40;99.90;;;;;;2093396;28;20029;-70
2022/06/13 04:23:43;;;;;;;9.05;4.47;;;15.40;99.90;;;;;;2093626;28;20477;-70
2022/06/13 04:24:51;;;;;;;9.60;4.43;;;15.40;99.90;;;;;;2095794;28;20024;-70
2022/06/13 04:26:14;;;;;;;9.80;4.93;;;15.40;99.90;;;;;;2093960;28;20509;-70
2022/06/13 04:27:22;;;;;;;7.07;4.50;;;15.40;99.90;;;;;;2093630;28;20032;-70
2022/06/13 04:28:42;;;;;;;10.73;4.70;;;15.50;99.90;;;;;;2093833;28;20074;-70
2022/06/13 04:29:50;;;;;;;8.43;4.95;;;15.50;99.90;;;;;;2090776;28;20098;-70
2022/06/13 04:30:53;;;;;;;10.98;4.68;;;15.50;99.90;;;;;;2093376;28;20100;-70
2022/06/13 04:31:59;;;;;;;11.23;5.15;;;15.50;99.90;;;;;;2092800;28;20056;-70
2022/06/13 04:33:05;;;;;;;8.75;4.38;;;15.50;99.90;;;;;;2095205;28;20076;-70
2022/06/13 04:34:23;;;;;;;10.88;4.45;;;15.60;99.90;;;;;;2094103;28;20356;-70
2022/06/13 04:35:24;;;;;;;10.40;4.80;;;15.60;99.90;;;;;;2093699;28;20024;-70
2022/06/13 04:36:26;;;;;;;8.88;4.47;;;15.60;99.90;;;;;;2093659;28;20024;-70
2022/06/13 04:37:28;;;;;;;9.65;4.38;;;15.60;99.90;;;;;;2091710;28;20028;-70
2022/06/13 04:38:29;;;;;;;9.07;4.55;;;15.70;99.90;;;;;;2093331;28;20036;-70
2022/06/13 04:39:35;;;;;;;9.90;4.38;;;15.70;99.90;;;;;;2093491;28;20023;-70
2022/06/13 04:40:40;;;;;;;12.43;4.70;;;15.70;99.90;;;;;;2094506;28;20066;-70
2022/06/13 04:41:44;;;;;;;11.52;4.55;;;15.70;99.90;;;;;;2091192;28;20047;-70
2022/06/13 04:42:46;;;;;;;8.30;4.68;;;15.70;99.90;;;;;;2095751;28;20062;-70
2022/06/13 04:43:53;;;;;;;12.27;5.03;;;15.80;99.90;;;;;;2095444;28;20107;-70
2022/06/13 04:44:58;;;;;;;7.82;4.60;;;15.80;99.90;;;;;;2094022;28;20025;-70
2022/06/13 04:46:36;;;;;;;9.73;5.10;;;15.80;99.90;;;;;;2091268;28;20025;-70
2022/06/13 04:47:37;;;;;;;10.27;4.60;;;15.80;99.90;;;;;;2066209;28;20077;-70
2022/06/13 04:48:40;;;;;;;11.73;5.03;;;15.80;99.90;;;;;;2065109;28;20022;-70
2022/06/13 04:49:56;;;;;;;11.38;5.00;;;15.90;99.90;;;;;;2071111;28;20513;-70
2022/06/13 04:51:15;;;;;;;14.32;5.82;;;15.90;99.90;;;;;;2093685;28;20036;-70
2022/06/13 04:52:23;;;;;;;10.65;4.93;;;15.90;99.90;;;;;;2096304;28;20059;-70
2022/06/13 04:53:37;;;;;;;15.38;4.90;;;15.90;99.90;;;;;;2090963;28;20035;-70
2022/06/13 04:55:05;;;;;;;10.13;5.38;;;15.90;99.90;;;;;;2092505;28;20021;-70
2022/06/13 04:56:06;;;;;;;11.52;5.00;;;15.90;99.90;;;;;;2092012;28;20381;-70
2022/06/13 04:57:13;;;;;;;11.55;4.85;;;15.90;99.90;;;;;;2093589;28;20063;-70
2022/06/13 04:58:29;;;;;;;11.23;4.97;;;16.00;99.90;;;;;;2093326;28;20032;-70
2022/06/13 04:59:30;;;;;;;8.90;4.75;;;16.00;99.90;;;;;;2095611;28;20027;-70
2022/06/13 05:00:33;;;;;;;10.60;4.38;;;16.00;99.90;;;;;;2094900;28;20190;-70
2022/06/13 05:01:35;;;;;;;10.35;5.10;;;16.00;99.90;;;;;;2095428;28;20605;-70
2022/06/13 05:02:43;;;;;;;10.48;5.43;;;16.00;99.90;;;;;;2090326;28;20029;-70
2022/06/13 05:03:46;;;;;;;8.65;4.45;;;16.10;99.90;;;;;;2093134;28;20041;-70
2022/06/13 05:04:47;;;;;;;8.77;4.72;;;16.10;99.90;;;;;;2096262;28;20037;-70
2022/06/13 05:05:53;;;;;;;10.50;4.82;;;16.10;99.90;;;;;;2096319;28;20749;-69
2022/06/13 05:06:57;;;;;;;11.02;5.30;;;16.10;99.90;;;;;;2097473;28;20701;-69
2022/06/13 05:07:58;;;;;;;11.40;6.03;;;16.10;99.90;;;;;;2095655;28;20029;-69
2022/06/13 05:09:01;;;;;;;11.90;5.43;;;16.10;99.90;;;;;;2094535;28;20053;-69
2022/06/13 05:10:10;;;;;;;12.63;5.68;;;16.10;99.90;;;;;;2091637;28;20040;-69
2022/06/13 05:11:27;;;;;;;14.05;6.18;;;16.10;99.90;;;;;;2095532;28;20509;-69
2022/06/13 05:12:43;;;;;;;14.82;5.47;;;16.10;99.90;;;;;;2090244;28;20039;-69
2022/06/13 05:13:46;;;;;;;10.40;5.80;;;16.20;99.90;;;;;;2094814;28;20705;-69
2022/06/13 05:15:07;;;;;;;11.40;5.43;;;16.10;99.90;;;;;;2096777;28;20384;-69
2022/06/13 05:16:49;;;;;;;14.20;5.78;;;16.10;99.90;;;;;;2092360;28;20503;-69
2022/06/13 05:18:17;;;;;;;15.18;5.63;;;16.10;99.90;;;;;;2094617;28;20100;-69
2022/06/13 05:19:28;;;;;;;8.35;4.97;;;16.10;99.90;;;;;;2093491;28;20052;-70
2022/06/13 05:20:46;;;;;;;;;;;16.10;99.90;;;;;;2089102;28;20051;-70
2022/06/13 05:22:24;;;;;;;10.10;5.40;;;16.00;99.90;;;;;;2093065;28;19908;-70
2022/06/13 05:23:37;;;;;;;11.77;5.85;;;16.10;99.90;;;;;;2092380;28;20065;-69
2022/06/13 05:25:08;;;;;;;15.55;5.93;;;16.00;99.90;;;;;;2090447;28;20389;-70
2022/06/13 05:26:09;;;;;;;11.82;5.80;;;16.10;99.90;;;;;;2092275;28;20025;-70
2022/06/13 05:27:09;;;;;;;10.80;5.53;;;16.10;99.90;;;;;;2093515;28;20040;-70
2022/06/13 05:28:13;;;;;;;13.50;6.85;;;16.10;99.90;;;;;;2093606;28;20027;-70
2022/06/13 05:29:14;;;;;;;12.23;5.82;;;16.10;99.90;;;;;;2091841;28;20124;-69
2022/06/13 05:30:17;;;;;;;10.70;5.97;;;16.10;99.90;;;;;;2093819;28;20021;-69
2022/06/13 05:31:19;;;;;;;12.93;6.38;;;16.10;99.90;;;;;;2094198;28;20368;-70
2022/06/13 05:32:22;;;;;;;14.32;5.78;;;16.10;99.90;;;;;;2096389;28;20089;-70
2022/06/13 05:33:26;;;;;;;11.05;5.55;;;16.20;99.90;;;;;;2094225;28;20546;-70
2022/06/13 05:34:33;;;;;;;10.60;5.78;;;16.20;99.90;;;;;;2097043;28;20093;-70
2022/06/13 05:35:35;;;;;;;12.90;5.97;;;16.20;99.90;;;;;;2096083;28;20108;-69
2022/06/13 05:36:36;;;;;;;9.00;5.63;;;16.20;99.90;;;;;;2095620;28;20441;-69
2022/06/13 05:37:36;;;;;;;15.43;7.07;;;16.20;99.90;;;;;;2098982;28;20029;-69
2022/06/13 05:38:44;;;;;;;10.23;5.50;;;16.20;99.90;;;;;;2095541;28;20023;-69
2022/06/13 05:39:45;;;;;;;13.30;6.43;;;16.20;99.90;;;;;;2096953;28;20009;-69
2022/06/13 05:40:46;;;;;;;12.27;6.38;;;16.20;99.90;;;;;;2096104;28;20267;-69
2022/06/13 05:41:46;;;;;;;14.98;7.47;;;16.30;99.90;;;;;;2091103;28;20048;-69
2022/06/13 05:42:48;;;;;;;13.45;6.88;;;16.30;99.90;;;;;;2096294;28;20435;-69
2022/06/13 05:43:49;;;;;;;17.73;7.47;;;16.30;99.90;;;;;;2093017;28;20013;-69
2022/06/13 05:44:50;;;;;;;19.35;7.18;;;16.30;99.90;;;;;;2112334;28;20024;-69
2022/06/13 05:45:51;;;;;;;12.82;7.63;;;16.30;99.90;;;;;;2110670;28;20051;-69
2022/06/13 05:46:51;;;;;;;16.65;7.78;;;16.30;99.90;;;;;;2093158;28;20059;-69
2022/06/13 05:47:53;;;;;;;15.35;8.13;;;16.30;99.90;;;;;;2096126;28;20074;-69
2022/06/13 05:48:55;;;;;;;16.42;7.88;;;16.30;99.90;;;;;;2093082;28;20020;-69
2022/06/13 05:49:55;;;;;;;18.38;8.07;;;16.40;99.90;;;;;;2097663;28;20028;-69
2022/06/13 05:50:56;;;;;;;18.67;8.52;;;16.40;99.90;;;;;;2096090;28;20032;-69
2022/06/13 05:51:56;;;;;;;13.38;8.05;;;16.40;99.90;;;;;;2097112;28;20047;-69
2022/06/13 05:52:57;;;;;;;16.08;7.10;;;16.40;99.90;;;;;;2094857;28;20099;-69
2022/06/13 05:53:58;;;;;;;16.10;8.13;;;16.40;99.90;;;;;;2091968;28;20017;-69
2022/06/13 05:54:59;;;;;;;17.10;8.15;;;16.40;99.90;;;;;;2093870;28;20024;-69
2022/06/13 05:56:01;;;;;;;15.52;7.20;;;16.40;99.90;;;;;;2096145;28;20037;-69
2022/06/13 05:57:03;;;;;;;13.23;7.35;;;16.40;99.90;;;;;;2098524;28;20036;-69
2022/06/13 05:58:04;;;;;;;13.82;7.68;;;16.40;99.90;;;;;;2092410;28;20132;-69
2022/06/13 05:59:05;;;;;;;14.63;6.82;;;16.40;99.90;;;;;;2094844;28;20066;-69
2022/06/13 06:00:14;;;;;;;19.05;8.98;;;16.50;99.90;;;;;;2093047;28;20082;-69
2022/06/13 06:01:15;;;;;;;10.43;6.47;;;16.50;99.90;;;;;;2093195;28;20258;-69
2022/06/13 06:02:15;;;;;;;14.75;7.05;;;16.40;99.90;;;;;;2093152;28;20043;-69
2022/06/13 06:03:16;;;;;;;17.00;8.50;;;16.40;99.90;;;;;;2098484;28;20392;-69
2022/06/13 06:04:17;;;;;;;13.38;7.43;;;16.40;99.90;;;;;;2094123;28;20127;-69
2022/06/13 06:05:18;;;;;;;12.65;6.45;;;16.50;99.90;;;;;;2095634;28;20035;-69
2022/06/13 06:06:27;;;;;;;18.00;7.28;;;16.50;99.90;;;;;;2095602;28;20025;-69